Seabourn Sojourn — C6YA5 — position and weather

sailwx.info

Track history (hours):
 
Tides and Currents Weather Stations Pressure Air Temp Water Temp Dewpoint Dewpoint Depression Visibility Wind Speed Wind Dir Waves Ship Positions

Seabourn Sojourn

Last reported at 2017-Jul-22 19:04 UTC. Time now 2017-Jul-24 08:25 UTC.
Position N 51°44' W 129°05'.

Length 198 m; draft 6.8 m.

Type: Passenger vessel. MMSI: 311027100.

Date/timePositionNaut miles runAvg speedWind from/ knotsBaromVisibWave heightAir tempDewpointWater temp
2017-Jul-22 19:04N 51°44' W 129°05'114.5
2017-Jul-22 19:00N 51°43' W 129°05'714.0
2017-Jul-22 18:31N 51°38' W 128°57'713.9
2017-Jul-22 18:01N 51°33' W 128°50'714.7
2017-Jul-22 17:30N 51°28' W 128°42'815.2
2017-Jul-22 17:00N 51°22' W 128°33'815.2
2017-Jul-22 16:30N 51°17' W 128°25'815.2
2017-Jul-22 16:00N 51°12' W 128°16'1315.4
2017-Jul-22 15:11N 51°04' W 127°60'514.4
2017-Jul-22 14:52N 51°01' W 127°54'1012.1
2017-Jul-22 14:00N 50°55' W 127°40'713.7
2017-Jul-22 13:30N 50°51' W 127°31'713.6
2017-Jul-22 13:00N 50°48' W 127°21'713.8
2017-Jul-22 12:29N 50°46' W 127°11'713.8
2017-Jul-22 12:00N 50°43' W 127°01'713.3
2017-Jul-22 11:30N 50°41' W 126°52'713.5
2017-Jul-22 11:00N 50°36' W 126°44'5113.0
2017-Jul-22 07:03N 50°20' W 125°27'111.9
2017-Jul-22 06:59N 50°20' W 125°26'612.5
2017-Jul-22 06:30N 50°15' W 125°23'713.2
2017-Jul-22 06:00N 50°08' W 125°21'611.1
2017-Jul-22 05:31N 50°04' W 125°15'815.0
2017-Jul-22 05:00N 49°58' W 125°09'917.7
2017-Jul-22 04:30N 49°52' W 124°59'917.5
2017-Jul-22 04:00N 49°46' W 124°49'918.1
2017-Jul-22 03:30N 49°41' W 124°38'1019.1
2017-Jul-22 02:57N 49°35' W 124°24'4119.3
2017-Jul-22 00:51N 49°19' W 123°26'718.7
2017-Jul-22 00:29N 49°19' W 123°16'613.4
2017-Jul-22 00:01N 49°18' W 123°06'1 1.1
2017-Jul-21 23:28N 49°17' W 123°07'0 0.0
2017-Jul-21 22:58N 49°17' W 123°07'0 0.0
2017-Jul-21 22:28N 49°17' W 123°07'0 0.0
2017-Jul-21 21:58N 49°17' W 123°07'0 0.0
2017-Jul-21 21:28N 49°17' W 123°07'0 0.0
2017-Jul-21 20:58N 49°17' W 123°07'0 0.0
2017-Jul-21 20:28N 49°17' W 123°07'0 0.0
2017-Jul-21 20:00N 49°17' W 123°07'0 0.0
2017-Jul-21 19:29N 49°17' W 123°07'0 0.0
2017-Jul-21 18:59N 49°17' W 123°07'0 0.0
2017-Jul-21 18:29N 49°17' W 123°07'0 0.0
2017-Jul-21 17:59N 49°17' W 123°07'0 0.0
2017-Jul-21 17:27N 49°17' W 123°07'0 0.0
2017-Jul-21 17:00N 49°17' W 123°07'0 0.0
2017-Jul-21 16:29N 49°17' W 123°07'0 0.0
2017-Jul-21 15:59N 49°17' W 123°07'0 0.0
2017-Jul-21 15:29N 49°17' W 123°07'0 0.0
2017-Jul-21 15:00N 49°17' W 123°07'0 0.0
2017-Jul-21 14:30N 49°17' W 123°07'0 0.1
2017-Jul-21 14:01N 49°17' W 123°07'2 3.4
2017-Jul-21 13:30N 49°19' W 123°08'612.2
2017-Jul-21 13:00N 49°18' W 123°18'712.9
2017-Jul-21 12:27N 49°19' W 123°28'1913.2
2017-Jul-21 11:01N 49°20' W 123°57'013.4
2017-Jul-21 10:59N 49°20' W 123°58'913.4
2017-Jul-21 10:20N 49°23' W 124°11'513.5
2017-Jul-21 09:59N 49°25' W 124°18'714.0
2017-Jul-21 09:29N 49°28' W 124°27'714.3
2017-Jul-21 09:01N 49°33' W 124°34'714.5
2017-Jul-21 08:31N 49°38' W 124°41'714.6
2017-Jul-21 08:00N 49°44' W 124°49'714.4
2017-Jul-21 07:31N 49°49' W 124°57'714.1
2017-Jul-21 07:00N 49°54' W 125°05'713.7
2017-Jul-21 06:30N 49°59' W 125°12'612.6
2017-Jul-21 06:00N 50°05' W 125°16'611.1
2017-Jul-21 05:30N 50°09' W 125°21'714.3
2017-Jul-21 05:00N 50°16' W 125°24'1611.7
2017-Jul-21 03:39N 50°22' W 125°47'46 3.3
2017-Jul-20 13:36N 50°35' W 126°56'1 3.9
2017-Jul-20 13:27N 50°35' W 126°57'510.3
2017-Jul-20 12:56N 50°37' W 127°05'512.5
2017-Jul-20 12:30N 50°39' W 127°13'814.1
2017-Jul-20 11:57N 50°45' W 127°20'613.7
2017-Jul-20 11:30N 50°49' W 127°27'613.1
2017-Jul-20 11:00N 50°53' W 127°36'713.0
2017-Jul-20 10:29N 50°57' W 127°44'612.9
2017-Jul-20 10:00N 50°60' W 127°53'713.5
2017-Jul-20 09:28N 51°02' W 128°04'613.4
2017-Jul-20 09:00N 51°04' W 128°14'713.4
2017-Jul-20 08:30N 51°07' W 128°23'714.1
2017-Jul-20 08:00N 51°13' W 128°30'714.5
2017-Jul-20 07:30N 51°18' W 128°37'714.5
2017-Jul-20 07:01N 51°24' W 128°44'714.1
2017-Jul-20 06:30N 51°30' W 128°50'714.0
2017-Jul-20 06:00N 51°37' W 128°54'714.4
2017-Jul-20 05:30N 51°43' W 128°59'714.5
2017-Jul-20 05:00N 51°50' W 129°04'714.4
2017-Jul-20 04:30N 51°57' W 129°07'713.6
2017-Jul-20 04:00N 52°03' W 129°08'714.8
2017-Jul-20 03:30N 52°08' W 128°58'815.1
2017-Jul-20 03:00N 52°12' W 128°48'815.3
2017-Jul-20 02:30N 52°16' W 128°37'815.1
2017-Jul-20 02:00N 52°23' W 128°32'  
Track history (hours):
 
Tides and Currents Weather Stations Pressure Air Temp Water Temp Dewpoint Dewpoint Depression Visibility Wind Speed Wind Dir Waves Ship Positions

Seabourn Sojourn

Last reported at 2017-Jul-22 19:04 UTC. Time now 2017-Jul-24 08:25 UTC.
Position N 51°44' W 129°05'.

Length 198 m; draft 6.8 m.

Type: Passenger vessel. MMSI: 311027100.

Date/timePositionNaut miles runAvg speedWind from/ knotsBaromVisibWave heightAir tempDewpointWater temp
2017-Jul-22 19:04N 51°44' W 129°05'114.5
2017-Jul-22 19:00N 51°43' W 129°05'714.0
2017-Jul-22 18:31N 51°38' W 128°57'713.9
2017-Jul-22 18:01N 51°33' W 128°50'714.7
2017-Jul-22 17:30N 51°28' W 128°42'815.2
2017-Jul-22 17:00N 51°22' W 128°33'815.2
2017-Jul-22 16:30N 51°17' W 128°25'815.2
2017-Jul-22 16:00N 51°12' W 128°16'1315.4
2017-Jul-22 15:11N 51°04' W 127°60'514.4
2017-Jul-22 14:52N 51°01' W 127°54'1012.1
2017-Jul-22 14:00N 50°55' W 127°40'713.7
2017-Jul-22 13:30N 50°51' W 127°31'713.6
2017-Jul-22 13:00N 50°48' W 127°21'713.8
2017-Jul-22 12:29N 50°46' W 127°11'713.8
2017-Jul-22 12:00N 50°43' W 127°01'713.3
2017-Jul-22 11:30N 50°41' W 126°52'713.5
2017-Jul-22 11:00N 50°36' W 126°44'5113.0
2017-Jul-22 07:03N 50°20' W 125°27'111.9
2017-Jul-22 06:59N 50°20' W 125°26'612.5
2017-Jul-22 06:30N 50°15' W 125°23'713.2
2017-Jul-22 06:00N 50°08' W 125°21'611.1
2017-Jul-22 05:31N 50°04' W 125°15'815.0
2017-Jul-22 05:00N 49°58' W 125°09'917.7
2017-Jul-22 04:30N 49°52' W 124°59'917.5
2017-Jul-22 04:00N 49°46' W 124°49'918.1
2017-Jul-22 03:30N 49°41' W 124°38'1019.1
2017-Jul-22 02:57N 49°35' W 124°24'4119.3
2017-Jul-22 00:51N 49°19' W 123°26'718.7
2017-Jul-22 00:29N 49°19' W 123°16'613.4
2017-Jul-22 00:01N 49°18' W 123°06'1 1.1
2017-Jul-21 23:28N 49°17' W 123°07'0 0.0
2017-Jul-21 22:58N 49°17' W 123°07'0 0.0
2017-Jul-21 22:28N 49°17' W 123°07'0 0.0
2017-Jul-21 21:58N 49°17' W 123°07'0 0.0
2017-Jul-21 21:28N 49°17' W 123°07'0 0.0
2017-Jul-21 20:58N 49°17' W 123°07'0 0.0
2017-Jul-21 20:28N 49°17' W 123°07'0 0.0
2017-Jul-21 20:00N 49°17' W 123°07'0 0.0
2017-Jul-21 19:29N 49°17' W 123°07'0 0.0
2017-Jul-21 18:59N 49°17' W 123°07'0 0.0
2017-Jul-21 18:29N 49°17' W 123°07'0 0.0
2017-Jul-21 17:59N 49°17' W 123°07'0 0.0
2017-Jul-21 17:27N 49°17' W 123°07'0 0.0
2017-Jul-21 17:00N 49°17' W 123°07'0 0.0
2017-Jul-21 16:29N 49°17' W 123°07'0 0.0
2017-Jul-21 15:59N 49°17' W 123°07'0 0.0
2017-Jul-21 15:29N 49°17' W 123°07'0 0.0
2017-Jul-21 15:00N 49°17' W 123°07'0 0.0
2017-Jul-21 14:30N 49°17' W 123°07'0 0.1
2017-Jul-21 14:01N 49°17' W 123°07'2 3.4
2017-Jul-21 13:30N 49°19' W 123°08'612.2
2017-Jul-21 13:00N 49°18' W 123°18'712.9
2017-Jul-21 12:27N 49°19' W 123°28'1913.2
2017-Jul-21 11:01N 49°20' W 123°57'013.4
2017-Jul-21 10:59N 49°20' W 123°58'913.4
2017-Jul-21 10:20N 49°23' W 124°11'513.5
2017-Jul-21 09:59N 49°25' W 124°18'714.0
2017-Jul-21 09:29N 49°28' W 124°27'714.3
2017-Jul-21 09:01N 49°33' W 124°34'714.5
2017-Jul-21 08:31N 49°38' W 124°41'714.6
2017-Jul-21 08:00N 49°44' W 124°49'714.4
2017-Jul-21 07:31N 49°49' W 124°57'714.1
2017-Jul-21 07:00N 49°54' W 125°05'713.7
2017-Jul-21 06:30N 49°59' W 125°12'612.6
2017-Jul-21 06:00N 50°05' W 125°16'611.1
2017-Jul-21 05:30N 50°09' W 125°21'714.3
2017-Jul-21 05:00N 50°16' W 125°24'1611.7
2017-Jul-21 03:39N 50°22' W 125°47'46 3.3
2017-Jul-20 13:36N 50°35' W 126°56'1 3.9
2017-Jul-20 13:27N 50°35' W 126°57'510.3
2017-Jul-20 12:56N 50°37' W 127°05'512.5
2017-Jul-20 12:30N 50°39' W 127°13'814.1
2017-Jul-20 11:57N 50°45' W 127°20'613.7
2017-Jul-20 11:30N 50°49' W 127°27'613.1
2017-Jul-20 11:00N 50°53' W 127°36'713.0
2017-Jul-20 10:29N 50°57' W 127°44'612.9
2017-Jul-20 10:00N 50°60' W 127°53'713.5
2017-Jul-20 09:28N 51°02' W 128°04'613.4
2017-Jul-20 09:00N 51°04' W 128°14'713.4
2017-Jul-20 08:30N 51°07' W 128°23'714.1
2017-Jul-20 08:00N 51°13' W 128°30'714.5
2017-Jul-20 07:30N 51°18' W 128°37'714.5
2017-Jul-20 07:01N 51°24' W 128°44'714.1
2017-Jul-20 06:30N 51°30' W 128°50'714.0
2017-Jul-20 06:00N 51°37' W 128°54'714.4
2017-Jul-20 05:30N 51°43' W 128°59'714.5
2017-Jul-20 05:00N 51°50' W 129°04'714.4
2017-Jul-20 04:30N 51°57' W 129°07'713.6
2017-Jul-20 04:00N 52°03' W 129°08'714.8
2017-Jul-20 03:30N 52°08' W 128°58'815.1
2017-Jul-20 03:00N 52°12' W 128°48'815.3
2017-Jul-20 02:30N 52°16' W 128°37'815.1
2017-Jul-20 02:00N 52°23' W 128°32'  

Dump ship's entire track history